createdAt,value
2018-03-14T00:00:26.345Z,6.2
2018-03-14T00:01:16.113Z,6.2
2018-03-14T00:02:06.184Z,6.2
2018-03-14T00:02:56.637Z,6.2
2018-03-14T00:03:48.657Z,6.2
2018-03-14T00:04:36.157Z,6.2
2018-03-14T00:05:26.411Z,6.2
2018-03-14T00:06:16.762Z,6.2
2018-03-14T00:07:06.836Z,6.2
2018-03-14T00:07:56.398Z,6.2
2018-03-14T00:08:46.958Z,6.2
2018-03-14T00:09:36.508Z,6.2
2018-03-14T00:10:26.868Z,6.2
2018-03-14T00:11:17.141Z,6.2
2018-03-14T00:12:06.885Z,6.2
2018-03-14T00:12:59.080Z,6.2
2018-03-14T00:13:47.346Z,6.2
2018-03-14T00:14:37.357Z,6.2
2018-03-14T00:15:27.223Z,6.2
2018-03-14T00:16:17.496Z,6.2
2018-03-14T00:17:07.538Z,6.2
2018-03-14T00:17:57.608Z,6.2
2018-03-14T00:18:47.678Z,6.2
2018-03-14T00:19:38.030Z,6.2
2018-03-14T00:20:28.083Z,6.2
2018-03-14T00:21:17.855Z,6.2
2018-03-14T00:22:07.497Z,6.2
2018-03-14T00:22:57.975Z,6.2
2018-03-14T00:23:48.031Z,6.2
2018-03-14T00:24:38.397Z,6.2
2018-03-14T00:25:28.033Z,6.2
2018-03-14T00:26:18.523Z,6.2
2018-03-14T00:27:08.282Z,6.2
2018-03-14T00:27:58.415Z,6.2
2018-03-14T00:28:48.089Z,6.2
2018-03-14T00:29:38.550Z,6.2
2018-03-14T00:30:28.842Z,6.2
2018-03-14T00:31:18.074Z,6.2
2018-03-14T00:32:08.631Z,6.2
2018-03-14T00:32:58.488Z,6.2
2018-03-14T00:33:49.059Z,6.2
2018-03-14T00:34:38.605Z,6.2
2018-03-14T00:35:28.880Z,6.2
2018-03-14T00:36:19.232Z,6.2
2018-03-14T00:37:09.010Z,6.2
2018-03-14T00:37:59.068Z,6.3
2018-03-14T00:38:49.452Z,6.3
2018-03-14T00:39:39.172Z,6.3
2018-03-14T00:40:29.967Z,6.3
2018-03-14T00:41:19.605Z,6.3
2018-03-14T00:42:09.656Z,6.3
2018-03-14T00:42:59.418Z,6.3
2018-03-14T00:43:49.172Z,6.3
2018-03-14T00:44:39.831Z,6.3
2018-03-14T00:45:29.604Z,6.3
2018-03-14T00:46:20.167Z,6.3
2018-03-14T00:47:10.217Z,6.3
2018-03-14T00:47:59.989Z,6.3
2018-03-14T00:48:50.626Z,6.3
2018-03-14T00:49:41.627Z,6.3
2018-03-14T00:50:30.762Z,6.3
2018-03-14T00:51:20.806Z,6.3
2018-03-14T00:52:10.861Z,6.3
2018-03-14T00:53:01.691Z,6.3
2018-03-14T00:53:50.966Z,6.3
2018-03-14T00:54:41.076Z,6.3
2018-03-14T00:55:31.119Z,6.4
2018-03-14T00:56:21.183Z,6.3
2018-03-14T00:57:10.924Z,6.4
2018-03-14T00:58:00.801Z,6.4
2018-03-14T00:58:50.546Z,6.4
2018-03-14T00:59:41.222Z,6.4
2018-03-14T01:00:30.872Z,6.4
2018-03-14T01:01:21.233Z,6.3
2018-03-14T01:02:11.292Z,6.4
2018-03-14T01:03:01.152Z,6.4
2018-03-14T01:03:51.713Z,6.4
2018-03-14T01:04:40.771Z,6.4
2018-03-14T01:05:31.037Z,6.4
2018-03-14T01:06:21.099Z,6.3
2018-03-14T01:07:11.161Z,6.4
2018-03-14T01:08:00.721Z,6.3
2018-03-14T01:08:51.063Z,6.4
2018-03-14T01:09:41.043Z,6.4
2018-03-14T01:10:31.388Z,6.4
2018-03-14T01:11:21.270Z,6.3
2018-03-14T01:12:11.020Z,6.4
2018-03-14T01:13:01.882Z,6.4
2018-03-14T01:13:51.334Z,6.4
2018-03-14T01:14:41.690Z,6.4
2018-03-14T01:15:31.866Z,6.3
2018-03-14T01:16:21.820Z,6.4
2018-03-14T01:17:11.875Z,6.4
2018-03-14T01:18:01.929Z,6.4
2018-03-14T01:18:52.320Z,6.4
2018-03-14T01:19:42.053Z,6.4
2018-03-14T01:20:32.124Z,6.4
2018-03-14T01:21:22.337Z,6.4
2018-03-14T01:22:11.833Z,6.4
2018-03-14T01:23:01.792Z,6.4
2018-03-14T01:23:52.352Z,6.4
2018-03-14T01:24:41.917Z,6.4
2018-03-14T01:25:32.469Z,6.4
2018-03-14T01:26:22.536Z,6.4
2018-03-14T01:27:12.336Z,6.4
2018-03-14T01:28:02.451Z,6.4
2018-03-14T01:28:53.006Z,6.4
2018-03-14T01:29:42.766Z,6.4
2018-03-14T01:30:32.540Z,6.4
2018-03-14T01:31:23.175Z,6.4
2018-03-14T01:32:12.988Z,6.4
2018-03-14T01:33:03.338Z,6.4
2018-03-14T01:33:53.078Z,6.4
2018-03-14T01:34:43.141Z,6.4
2018-03-14T01:35:34.233Z,6.4
2018-03-14T01:36:22.966Z,6.4
2018-03-14T01:37:13.013Z,6.4
2018-03-14T01:38:03.403Z,6.5
2018-03-14T01:38:53.139Z,6.4
2018-03-14T01:39:43.211Z,6.5
2018-03-14T01:40:33.870Z,6.5
2018-03-14T01:41:23.410Z,6.5
2018-03-14T01:42:13.550Z,6.5
2018-03-14T01:43:03.321Z,6.6
2018-03-14T01:43:54.085Z,6.5
2018-03-14T01:44:44.577Z,6.5
2018-03-14T01:45:33.917Z,6.6
2018-03-14T01:46:23.982Z,6.6
2018-03-14T01:47:14.040Z,6.6
2018-03-14T01:48:04.098Z,6.6
2018-03-14T01:48:54.168Z,6.6
2018-03-14T01:49:44.213Z,6.6
2018-03-14T01:50:34.065Z,6.6
2018-03-14T01:51:24.040Z,6.6
2018-03-14T01:52:14.497Z,6.6
2018-03-14T01:53:04.166Z,6.6
2018-03-14T01:53:54.219Z,6.6
2018-03-14T01:54:44.583Z,6.6
2018-03-14T01:55:34.451Z,6.6
2018-03-14T01:56:24.690Z,6.6
2018-03-14T01:57:14.465Z,6.6
2018-03-14T01:58:04.809Z,6.6
2018-03-14T01:58:55.165Z,6.6
2018-03-14T01:59:44.732Z,6.6
2018-03-14T02:00:35.302Z,6.7
2018-03-14T02:01:24.641Z,6.6
2018-03-14T02:02:14.820Z,6.6
2018-03-14T02:03:04.667Z,6.6
2018-03-14T02:03:55.533Z,6.7
2018-03-14T02:04:45.295Z,6.7
2018-03-14T02:05:35.157Z,6.6
2018-03-14T02:06:25.425Z,6.7
2018-03-14T02:07:15.267Z,6.7
2018-03-14T02:08:05.231Z,6.7
2018-03-14T02:08:55.102Z,6.7
2018-03-14T02:09:45.690Z,6.7
2018-03-14T02:10:35.504Z,6.7
2018-03-14T02:11:25.571Z,6.7
2018-03-14T02:12:16.504Z,6.7
2018-03-14T02:13:05.605Z,6.7
2018-03-14T02:13:55.746Z,6.7
2018-03-14T02:14:46.306Z,6.7
2018-03-14T02:15:36.078Z,6.7
2018-03-14T02:16:26.137Z,6.7
2018-03-14T02:17:16.200Z,6.7
2018-03-14T02:18:07.279Z,6.7
2018-03-14T02:18:56.321Z,6.7
2018-03-14T02:19:46.686Z,6.8
2018-03-14T02:20:36.735Z,6.7
2018-03-14T02:21:26.795Z,6.8
2018-03-14T02:22:16.570Z,6.7
2018-03-14T02:23:06.105Z,6.8
2018-03-14T02:23:56.985Z,6.8
2018-03-14T02:24:47.048Z,6.8
2018-03-14T02:25:37.140Z,6.7
2018-03-14T02:26:26.870Z,6.8
2018-03-14T02:27:19.020Z,6.8
2018-03-14T02:28:07.274Z,6.8
2018-03-14T02:28:57.050Z,6.8
2018-03-14T02:29:47.411Z,6.8
2018-03-14T02:30:38.022Z,6.8
2018-03-14T02:31:28.017Z,6.8
2018-03-14T02:32:18.090Z,6.8
2018-03-14T02:33:08.159Z,6.8
2018-03-14T02:33:57.927Z,6.8
2018-03-14T02:34:47.952Z,6.8
2018-03-14T02:35:38.290Z,6.8
2018-03-14T02:36:31.026Z,6.8
2018-03-14T02:37:18.435Z,6.8
2018-03-14T02:38:08.222Z,6.8
2018-03-14T02:38:58.552Z,6.8
2018-03-14T02:39:48.311Z,6.8
2018-03-14T02:40:38.680Z,6.8
2018-03-14T02:41:28.749Z,6.8
2018-03-14T02:42:18.197Z,6.8
2018-03-14T02:43:08.262Z,6.8
2018-03-14T02:43:58.404Z,6.8
2018-03-14T02:44:48.651Z,6.8
2018-03-14T02:45:38.022Z,6.8
2018-03-14T02:46:28.293Z,6.8
2018-03-14T02:47:18.851Z,6.8
2018-03-14T02:48:08.607Z,6.8
2018-03-14T02:48:58.188Z,6.8
2018-03-14T02:49:48.810Z,6.8
2018-03-14T02:50:38.599Z,6.8
2018-03-14T02:51:28.454Z,6.8
2018-03-14T02:52:19.503Z,6.8
2018-03-14T02:53:09.262Z,6.8
2018-03-14T02:53:59.333Z,6.8
2018-03-14T02:54:49.471Z,6.8
2018-03-14T02:55:39.440Z,6.8
2018-03-14T02:56:28.890Z,6.8
2018-03-14T02:57:19.831Z,6.8
2018-03-14T02:58:09.121Z,6.8
2018-03-14T02:58:59.666Z,6.8
2018-03-14T02:59:49.738Z,6.8
2018-03-14T03:00:39.812Z,6.8
2018-03-14T03:01:29.371Z,6.8
2018-03-14T03:02:20.007Z,6.8
2018-03-14T03:03:09.699Z,6.8
2018-03-14T03:04:00.026Z,6.8
2018-03-14T03:04:50.385Z,6.8
2018-03-14T03:05:39.870Z,6.8
2018-03-14T03:06:30.215Z,6.8
2018-03-14T03:07:20.270Z,6.8
2018-03-14T03:08:09.751Z,6.8
2018-03-14T03:09:00.385Z,6.8
2018-03-14T03:09:49.936Z,6.8
2018-03-14T03:10:40.509Z,6.8
2018-03-14T03:11:30.593Z,6.8
2018-03-14T03:12:20.337Z,6.8
2018-03-14T03:13:10.680Z,6.8
2018-03-14T03:14:00.406Z,6.8
2018-03-14T03:14:50.515Z,6.8
2018-03-14T03:15:40.584Z,6.8
2018-03-14T03:16:30.754Z,6.8
2018-03-14T03:17:21.282Z,6.8
2018-03-14T03:18:10.762Z,6.8
2018-03-14T03:19:00.902Z,6.8
2018-03-14T03:19:51.164Z,6.8
2018-03-14T03:20:41.497Z,6.8
2018-03-14T03:21:31.292Z,6.8
2018-03-14T03:22:21.045Z,6.8
2018-03-14T03:23:11.431Z,6.8
2018-03-14T03:24:01.196Z,6.8
2018-03-14T03:24:51.846Z,6.8
2018-03-14T03:25:41.582Z,6.8
2018-03-14T03:26:31.360Z,6.8
2018-03-14T03:27:21.417Z,6.7
2018-03-14T03:28:12.055Z,6.7
2018-03-14T03:29:01.260Z,6.8
2018-03-14T03:29:51.799Z,6.7
2018-03-14T03:30:42.246Z,6.7
2018-03-14T03:31:31.819Z,6.7
2018-03-14T03:32:22.161Z,6.7
2018-03-14T03:33:11.832Z,6.7
2018-03-14T03:34:02.195Z,6.7
2018-03-14T03:34:51.855Z,6.6
2018-03-14T03:35:42.042Z,6.6
2018-03-14T03:36:32.379Z,6.6
2018-03-14T03:37:22.421Z,6.6
2018-03-14T03:38:12.479Z,6.6
2018-03-14T03:39:02.264Z,6.6
2018-03-14T03:39:52.335Z,6.6
2018-03-14T03:40:42.088Z,6.6
2018-03-14T03:41:33.020Z,6.6
2018-03-14T03:42:23.071Z,6.6
2018-03-14T03:43:12.847Z,6.6
2018-03-14T03:44:03.188Z,6.6
2018-03-14T03:44:52.474Z,6.6
2018-03-14T03:45:43.025Z,6.6
2018-03-14T03:46:32.610Z,6.6
2018-03-14T03:47:22.860Z,6.6
2018-03-14T03:48:12.707Z,6.6
2018-03-14T03:49:03.261Z,6.6
2018-03-14T03:49:53.347Z,6.6
2018-03-14T03:50:43.378Z,6.6
2018-03-14T03:51:33.763Z,6.6
2018-03-14T03:52:23.110Z,6.6
2018-03-14T03:53:12.789Z,6.6
2018-03-14T03:54:03.342Z,6.5
2018-03-14T03:54:53.681Z,6.5
2018-03-14T03:55:43.180Z,6.5
2018-03-14T03:56:33.530Z,6.5
2018-03-14T03:57:23.684Z,6.5
2018-03-14T03:58:13.923Z,6.5
2018-03-14T03:59:03.591Z,6.5
2018-03-14T03:59:53.476Z,6.5
2018-03-14T04:00:44.277Z,6.5
2018-03-14T04:01:33.568Z,6.5
2018-03-14T04:02:23.947Z,6.5
2018-03-14T04:03:14.277Z,6.5
2018-03-14T04:04:04.152Z,6.5
2018-03-14T04:04:54.227Z,6.5
2018-03-14T04:05:44.478Z,6.5
2018-03-14T04:06:34.548Z,6.5
2018-03-14T04:07:24.905Z,6.5
2018-03-14T04:08:14.449Z,6.4
2018-03-14T04:09:04.712Z,6.4
2018-03-14T04:09:55.060Z,6.4
2018-03-14T04:10:44.812Z,6.4
2018-03-14T04:11:34.200Z,6.4
2018-03-14T04:12:24.459Z,6.4
2018-03-14T04:13:14.805Z,6.4
2018-03-14T04:14:04.767Z,6.4
2018-03-14T04:14:54.855Z,6.4
2018-03-14T04:15:45.207Z,6.4
2018-03-14T04:16:34.968Z,6.4
2018-03-14T04:17:25.009Z,6.4
2018-03-14T04:18:15.649Z,6.4
2018-03-14T04:19:05.697Z,6.4
2018-03-14T04:19:55.782Z,6.4
2018-03-14T04:20:45.524Z,6.5
2018-03-14T04:21:35.551Z,6.4
2018-03-14T04:22:25.441Z,6.4
2018-03-14T04:23:15.988Z,6.4
2018-03-14T04:24:06.062Z,6.4
2018-03-14T04:24:56.106Z,6.5
2018-03-14T04:25:46.297Z,6.4
2018-03-14T04:26:35.676Z,6.4
2018-03-14T04:27:26.286Z,6.5
2018-03-14T04:28:16.343Z,6.4
2018-03-14T04:29:06.143Z,6.5
2018-03-14T04:29:56.184Z,6.4
2018-03-14T04:30:46.242Z,6.4
2018-03-14T04:31:36.821Z,6.4
2018-03-14T04:32:26.377Z,6.4
2018-03-14T04:33:16.739Z,6.4
2018-03-14T04:34:06.511Z,6.4
2018-03-14T04:34:56.824Z,6.4
2018-03-14T04:35:46.608Z,6.4
2018-03-14T04:36:36.937Z,6.4
2018-03-14T04:37:27.013Z,6.4
2018-03-14T04:38:16.795Z,6.4
2018-03-14T04:39:07.142Z,6.4
2018-03-14T04:39:57.215Z,6.4
2018-03-14T04:40:46.968Z,6.4
2018-03-14T04:41:37.064Z,6.4
2018-03-14T04:42:27.097Z,6.4
2018-03-14T04:43:17.430Z,6.4
2018-03-14T04:44:07.197Z,6.4
2018-03-14T04:44:57.285Z,6.3
2018-03-14T04:45:47.626Z,6.3
2018-03-14T04:46:37.380Z,6.3
2018-03-14T04:47:27.748Z,6.3
2018-03-14T04:48:17.787Z,6.3
2018-03-14T04:49:07.567Z,6.3
2018-03-14T04:49:57.511Z,6.3
2018-03-14T04:50:47.218Z,6.3
2018-03-14T04:51:37.779Z,6.3
2018-03-14T04:52:27.907Z,6.3
2018-03-14T04:53:17.380Z,6.3
2018-03-14T04:54:07.932Z,6.3
2018-03-14T04:54:57.713Z,6.3
2018-03-14T04:55:47.861Z,6.2
2018-03-14T04:56:38.122Z,6.2
2018-03-14T04:57:27.692Z,6.3
2018-03-14T04:58:18.237Z,6.2
2018-03-14T04:59:08.317Z,6.2
2018-03-14T04:59:58.352Z,6.2
2018-03-14T05:00:48.716Z,6.2
2018-03-14T05:01:37.896Z,6.2
2018-03-14T05:02:28.521Z,6.2
2018-03-14T05:03:18.391Z,6.2
2018-03-14T05:04:08.366Z,6.2
2018-03-14T05:04:58.731Z,6.2
2018-03-14T05:05:49.038Z,6.2
2018-03-14T05:06:38.550Z,6.1
2018-03-14T05:07:28.662Z,6.2
2018-03-14T05:08:18.947Z,6.2
2018-03-14T05:09:08.418Z,6.2
2018-03-14T05:09:58.784Z,6.2
2018-03-14T05:10:49.435Z,6.2
2018-03-14T05:11:39.301Z,6.2
2018-03-14T05:12:29.049Z,6.2
2018-03-14T05:13:19.586Z,6.2
2018-03-14T05:14:09.084Z,6.2
2018-03-14T05:15:14.058Z,6.2
2018-03-14T05:15:49.776Z,6.2
2018-03-14T05:16:39.855Z,6.2
2018-03-14T05:17:29.113Z,6.2
2018-03-14T05:18:18.976Z,6.3
2018-03-14T05:19:09.814Z,6.3
2018-03-14T05:19:59.500Z,6.3
2018-03-14T05:20:49.857Z,6.3
2018-03-14T05:21:39.902Z,6.3
2018-03-14T05:22:29.947Z,6.3
2018-03-14T05:23:20.039Z,6.3
2018-03-14T05:24:09.886Z,6.3
2018-03-14T05:25:00.159Z,6.3
2018-03-14T05:25:50.011Z,6.3
2018-03-14T05:26:40.040Z,6.4
2018-03-14T05:27:29.842Z,6.4
2018-03-14T05:28:20.106Z,6.4
2018-03-14T05:29:10.437Z,6.4
2018-03-14T05:30:00.791Z,6.5
2018-03-14T05:30:50.360Z,6.5
2018-03-14T05:31:40.628Z,6.6
2018-03-14T05:32:29.996Z,6.6
2018-03-14T05:33:20.549Z,6.6
2018-03-14T05:34:10.319Z,6.6
2018-03-14T05:35:00.174Z,6.7
2018-03-14T05:35:50.918Z,6.7
2018-03-14T05:36:40.997Z,6.8
2018-03-14T05:37:30.844Z,6.8
2018-03-14T05:38:20.625Z,6.8
2018-03-14T05:39:11.173Z,6.8
2018-03-14T05:40:00.936Z,6.9
2018-03-14T05:40:51.003Z,6.9
2018-03-14T05:41:41.691Z,6.9
2018-03-14T05:42:31.213Z,7
2018-03-14T05:43:21.153Z,7
2018-03-14T05:44:11.551Z,7.1
2018-03-14T05:45:01.373Z,7.1
2018-03-14T05:45:51.923Z,7.1
2018-03-14T05:46:41.403Z,7.2
2018-03-14T05:47:31.638Z,7.2
2018-03-14T05:48:21.815Z,7.3
2018-03-14T05:49:11.611Z,7.3
2018-03-14T05:50:01.952Z,7.4
2018-03-14T05:50:52.278Z,7.4
2018-03-14T05:51:42.342Z,7.5
2018-03-14T05:52:31.815Z,7.6
2018-03-14T05:53:21.955Z,7.6
2018-03-14T05:54:12.544Z,7.6
2018-03-14T05:55:02.584Z,7.8
2018-03-14T05:55:52.065Z,7.8
2018-03-14T05:56:42.204Z,7.9
2018-03-14T05:57:32.465Z,7.9
2018-03-14T05:58:22.532Z,8.1
2018-03-14T05:59:12.384Z,8.1
2018-03-14T06:00:02.664Z,8.3
2018-03-14T06:00:52.416Z,8.3
2018-03-14T06:01:42.071Z,8.4
2018-03-14T06:02:32.818Z,8.4
2018-03-14T06:03:22.596Z,8.6
2018-03-14T06:04:12.985Z,8.6
2018-03-14T06:05:02.810Z,8.7
2018-03-14T06:05:53.067Z,8.8
2018-03-14T06:06:42.824Z,8.8
2018-03-14T06:07:33.230Z,8.9
2018-03-14T06:08:23.524Z,9
2018-03-14T06:09:13.120Z,9.1
2018-03-14T06:10:03.073Z,9.2
2018-03-14T06:10:53.421Z,9.3
2018-03-14T06:11:43.198Z,9.3
2018-03-14T06:12:33.247Z,9.4
2018-03-14T06:13:23.197Z,9.4
2018-03-14T06:14:13.944Z,9.5
2018-03-14T06:15:03.136Z,9.6
2018-03-14T06:15:53.378Z,9.6
2018-03-14T06:16:43.821Z,9.8
2018-03-14T06:17:33.896Z,9.8
2018-03-14T06:18:23.360Z,9.9
2018-03-14T06:19:13.891Z,9.9
2018-03-14T06:20:04.077Z,10
2018-03-14T06:20:53.830Z,10.1
2018-03-14T06:21:43.898Z,10.1
2018-03-14T06:22:33.993Z,10.2
2018-03-14T06:23:24.111Z,10.3
2018-03-14T06:24:14.156Z,10.3
2018-03-14T06:25:04.231Z,10.4
2018-03-14T06:25:54.476Z,10.4
2018-03-14T06:26:44.354Z,10.5
2018-03-14T06:27:34.600Z,10.6
2018-03-14T06:28:24.963Z,10.6
2018-03-14T06:29:14.238Z,10.7
2018-03-14T06:30:05.050Z,10.8
2018-03-14T06:30:54.738Z,10.8
2018-03-14T06:31:44.711Z,10.9
2018-03-14T06:32:35.267Z,10.9
2018-03-14T06:33:24.445Z,10.9
2018-03-14T06:34:15.083Z,11
2018-03-14T06:35:05.157Z,11.1
2018-03-14T06:35:54.897Z,11.1
2018-03-14T06:36:44.988Z,11.1
2018-03-14T06:37:35.311Z,11.2
2018-03-14T06:38:24.810Z,11.3
2018-03-14T06:39:15.741Z,11.3
2018-03-14T06:40:04.908Z,11.3
2018-03-14T06:40:55.849Z,11.3
2018-03-14T06:41:45.615Z,11.3
2018-03-14T06:42:35.452Z,11.4
2018-03-14T06:43:25.552Z,11.4
2018-03-14T06:44:15.815Z,11.4
2018-03-14T06:45:05.662Z,11.5
2018-03-14T06:45:55.710Z,11.5
2018-03-14T06:46:45.785Z,11.6
2018-03-14T06:47:35.739Z,11.6
2018-03-14T06:48:26.385Z,11.6
2018-03-14T06:49:16.435Z,11.6
2018-03-14T06:50:06.097Z,11.7
2018-03-14T06:50:56.287Z,11.7
2018-03-14T06:51:45.724Z,11.8
2018-03-14T06:52:35.905Z,11.8
2018-03-14T06:53:26.436Z,11.8
2018-03-14T06:54:16.512Z,11.9
2018-03-14T06:55:06.359Z,11.9
2018-03-14T06:55:56.608Z,11.9
2018-03-14T06:56:46.794Z,12
2018-03-14T06:57:36.749Z,12.1
2018-03-14T06:58:26.399Z,12.1
2018-03-14T06:59:16.274Z,12.2
2018-03-14T07:00:06.621Z,12.3
2018-03-14T07:00:56.993Z,12.3
2018-03-14T07:01:47.341Z,12.4
2018-03-14T07:02:36.803Z,12.4
2018-03-14T07:03:27.425Z,12.5
2018-03-14T07:04:16.639Z,12.6
2018-03-14T07:05:07.360Z,12.6
2018-03-14T07:05:57.646Z,12.7
2018-03-14T07:06:47.681Z,12.8
2018-03-14T07:07:37.731Z,12.9
2018-03-14T07:08:27.785Z,13
2018-03-14T07:09:17.558Z,13.1
2018-03-14T07:10:07.611Z,13.2
2018-03-14T07:10:57.986Z,13.3
2018-03-14T07:11:47.754Z,13.5
2018-03-14T07:12:38.078Z,13.6
2018-03-14T07:13:28.162Z,13.8
2018-03-14T07:14:18.221Z,13.9
2018-03-14T07:15:07.980Z,14.1
2018-03-14T07:15:58.312Z,14.3
2018-03-14T07:16:48.385Z,14.4
2018-03-14T07:17:38.164Z,14.6
2018-03-14T07:18:28.543Z,14.8
2018-03-14T07:19:18.286Z,14.9
2018-03-14T07:20:08.615Z,15.1
2018-03-14T07:20:58.416Z,15.3
2018-03-14T07:21:48.735Z,15.4
2018-03-14T07:22:38.807Z,15.5
2018-03-14T07:23:28.880Z,15.7
2018-03-14T07:24:18.635Z,15.8
2018-03-14T07:25:08.974Z,16
2018-03-14T07:25:59.048Z,16.1
2018-03-14T07:26:49.089Z,16.3
2018-03-14T07:27:38.867Z,16.5
2018-03-14T07:28:29.338Z,16.7
2018-03-14T07:29:18.996Z,16.8
2018-03-14T07:30:59.378Z,17.2
2018-03-14T07:31:49.461Z,17.4
2018-03-14T07:32:39.524Z,17.6
2018-03-14T07:33:29.567Z,17.9
2018-03-14T07:34:19.643Z,18.3
2018-03-14T07:35:59.752Z,19.2
2018-03-14T07:36:49.812Z,19.6
2018-03-14T07:37:39.567Z,19.9
2018-03-14T07:38:29.924Z,20.3
2018-03-14T07:39:19.709Z,20.6
2018-03-14T07:40:09.773Z,20.8
2018-03-14T07:40:59.834Z,21
2018-03-14T07:41:49.976Z,21.2
2018-03-14T07:42:39.752Z,21.4
2018-03-14T07:43:29.722Z,21.6
2018-03-14T07:44:20.068Z,21.8
2018-03-14T07:45:10.147Z,21.9
2018-03-14T07:46:00.194Z,22
2018-03-14T07:46:50.244Z,22.2
2018-03-14T07:47:40.021Z,22.4
2018-03-14T07:48:29.589Z,22.6
2018-03-14T07:49:20.529Z,22.8
2018-03-14T07:50:10.204Z,23.2
2018-03-14T07:51:00.853Z,23.8
2018-03-14T07:51:50.628Z,24.6
2018-03-14T07:52:40.430Z,25.4
2018-03-14T07:53:30.999Z,26.4
2018-03-14T07:54:20.507Z,27.3
2018-03-14T07:55:11.127Z,28.1
2018-03-14T07:56:00.319Z,28.7
2018-03-14T07:56:50.662Z,29.2
2018-03-14T07:57:40.734Z,29.6
2018-03-14T07:58:30.701Z,29.9
2018-03-14T07:59:21.180Z,30.1
2018-03-14T08:00:11.199Z,30.3
2018-03-14T08:01:01.276Z,30.4
2018-03-14T08:01:51.016Z,30.5
2018-03-14T08:02:41.660Z,30.6
2018-03-14T08:03:31.169Z,30.7
2018-03-14T08:04:21.518Z,30.8
2018-03-14T08:05:10.973Z,30.9
2018-03-14T08:06:01.919Z,30.9
2018-03-14T08:06:51.488Z,30.9
2018-03-14T08:07:41.509Z,30.8
2018-03-14T08:08:31.813Z,30.7
2018-03-14T08:09:21.872Z,30.5
2018-03-14T08:10:11.924Z,30.3
2018-03-14T08:11:01.488Z,30.1
2018-03-14T08:11:52.125Z,29.8
2018-03-14T08:12:42.377Z,29.5
2018-03-14T08:13:33.052Z,29.3
2018-03-14T08:14:22.204Z,29
2018-03-14T08:15:12.575Z,28.8
2018-03-14T08:16:02.623Z,28.6
2018-03-14T08:16:52.668Z,28.3
2018-03-14T08:17:42.723Z,28.1
2018-03-14T08:18:32.217Z,27.9
2018-03-14T08:19:22.585Z,27.8
2018-03-14T08:20:12.900Z,27.6
2018-03-14T08:21:02.967Z,27.4
2018-03-14T08:21:53.025Z,27.2
2018-03-14T08:22:43.080Z,26.9
2018-03-14T08:23:33.144Z,26.8
2018-03-14T08:24:22.636Z,26.5
2018-03-14T08:25:12.990Z,26.3
2018-03-14T08:26:03.440Z,26.1
2018-03-14T08:26:53.093Z,25.9
2018-03-14T08:27:43.529Z,25.7
2018-03-14T08:28:33.511Z,25.5
2018-03-14T08:29:23.583Z,25.3
2018-03-14T08:30:13.397Z,25.1
2018-03-14T08:31:03.684Z,24.9
2018-03-14T08:31:53.259Z,24.8
2018-03-14T08:32:43.810Z,24.6
2018-03-14T08:33:33.876Z,24.4
2018-03-14T08:34:23.669Z,24.3
2018-03-14T08:35:13.704Z,24.2
2018-03-14T08:36:04.053Z,24.1
2018-03-14T08:36:54.106Z,23.9
2018-03-14T08:37:44.169Z,23.8
2018-03-14T08:38:33.965Z,23.6
2018-03-14T08:39:24.018Z,23.4
2018-03-14T08:40:14.062Z,23.3
2018-03-14T08:41:04.129Z,23.1
2018-03-14T08:41:54.497Z,23
2018-03-14T08:42:44.231Z,22.9
2018-03-14T08:43:34.293Z,22.8
2018-03-14T08:44:24.630Z,22.6
2018-03-14T08:45:14.412Z,22.4
2018-03-14T08:46:04.765Z,22.4
2018-03-14T08:46:54.981Z,22.3
2018-03-14T08:47:44.599Z,22.1
2018-03-14T08:48:34.480Z,22
2018-03-14T08:49:24.992Z,21.9
2018-03-14T08:50:15.116Z,21.9
2018-03-14T08:51:04.849Z,21.8
2018-03-14T08:51:54.627Z,21.8
2018-03-14T08:52:45.234Z,21.9
2018-03-14T08:53:35.318Z,22.1
2018-03-14T08:54:25.477Z,22.3
2018-03-14T08:55:15.408Z,22.6
2018-03-14T08:56:05.468Z,22.9
2018-03-14T08:56:55.252Z,23.3
2018-03-14T08:57:45.306Z,23.6
2018-03-14T08:58:35.091Z,24
2018-03-14T08:59:25.428Z,24.3
2018-03-14T09:00:15.771Z,24.7
2018-03-14T09:01:05.074Z,25.1
2018-03-14T09:01:55.040Z,25.6
2018-03-14T09:02:45.966Z,26.1
2018-03-14T09:03:35.729Z,26.8
2018-03-14T09:04:25.519Z,27.3
2018-03-14T09:05:15.843Z,27.9
2018-03-14T09:06:06.188Z,28.7
2018-03-14T09:06:56.253Z,29.4
2018-03-14T09:07:46.035Z,30.2
2018-03-14T09:08:36.105Z,30.9
2018-03-14T09:09:26.179Z,31.7
2018-03-14T09:10:16.208Z,32.4
2018-03-14T09:11:06.333Z,33.1
2018-03-14T09:11:56.620Z,33.6
2018-03-14T09:12:46.394Z,34.1
2018-03-14T09:13:36.451Z,34.7
2018-03-14T09:14:26.228Z,35.1
2018-03-14T09:15:16.582Z,35.7
2018-03-14T09:16:06.147Z,36.3
2018-03-14T09:16:56.719Z,36.7
2018-03-14T09:17:46.860Z,37
2018-03-14T09:18:37.115Z,37.3
2018-03-14T09:19:26.695Z,38.9
2018-03-14T09:20:17.051Z,40.3
2018-03-14T09:21:07.291Z,39.9
2018-03-14T09:21:57.069Z,38.7
2018-03-14T09:22:46.634Z,37.3
2018-03-14T09:23:37.189Z,35.3
2018-03-14T09:24:27.234Z,33.9
2018-03-14T09:25:17.316Z,32.9
2018-03-14T09:26:07.069Z,32.3
2018-03-14T09:26:57.709Z,31.8
2018-03-14T09:27:47.485Z,31.3
2018-03-14T09:28:37.853Z,30.9
2018-03-14T09:29:27.884Z,30.6
2018-03-14T09:30:17.955Z,30.4
2018-03-14T09:31:07.425Z,30.3
2018-03-14T09:31:57.203Z,30.3
2018-03-14T09:32:47.339Z,30.6
2018-03-14T09:33:37.605Z,31
2018-03-14T09:34:28.261Z,31.5
2018-03-14T09:35:17.828Z,31.8
2018-03-14T09:36:07.906Z,32.1
2018-03-14T09:36:58.414Z,32.1
2018-03-14T09:37:48.498Z,32.1
2018-03-14T09:38:37.996Z,32.1
2018-03-14T09:39:28.019Z,32
2018-03-14T09:40:17.698Z,31.9
2018-03-14T09:41:08.741Z,31.8
2018-03-14T09:41:58.503Z,31.7
2018-03-14T09:42:48.568Z,31.6
2018-03-14T09:43:38.890Z,31.4
2018-03-14T09:44:28.780Z,31.3
2018-03-14T09:45:18.560Z,31.1
2018-03-14T09:46:08.878Z,30.9
2018-03-14T09:46:58.859Z,30.9
2018-03-14T09:47:48.732Z,30.9
2018-03-14T09:48:38.865Z,30.9
2018-03-14T09:49:29.047Z,30.9
2018-03-14T09:50:18.813Z,30.9
2018-03-14T09:51:08.480Z,30.9
2018-03-14T09:51:59.223Z,30.9
2018-03-14T09:52:49.312Z,30.9
2018-03-14T09:53:39.347Z,30.9
2018-03-14T09:54:29.100Z,30.9
2018-03-14T09:55:19.265Z,31
2018-03-14T09:56:09.429Z,31.1
2018-03-14T09:56:59.882Z,31.3
2018-03-14T09:57:49.445Z,31.8
2018-03-14T09:58:39.690Z,32.7
2018-03-14T09:59:29.081Z,33.9
2018-03-14T10:00:19.819Z,35.2
2018-03-14T10:01:10.194Z,36.3
2018-03-14T10:01:59.960Z,37.3
2018-03-14T10:02:50.034Z,38.4
2018-03-14T10:03:40.372Z,40.9
2018-03-14T10:04:30.135Z,42.3
2018-03-14T10:05:20.192Z,41.3
2018-03-14T10:06:10.565Z,40.2
2018-03-14T10:06:59.613Z,38.4
2018-03-14T10:07:50.184Z,36.9
2018-03-14T10:08:40.232Z,35.9
2018-03-14T10:09:30.194Z,35.6
2018-03-14T10:10:20.351Z,35.7
2018-03-14T10:11:10.422Z,36.3
2018-03-14T10:12:00.979Z,37
2018-03-14T10:12:50.844Z,38.3
2018-03-14T10:13:41.080Z,41.3
2018-03-14T10:14:30.864Z,43.9
2018-03-14T10:15:20.924Z,44.4
2018-03-14T10:16:10.965Z,45
2018-03-14T10:17:00.756Z,45.4
2018-03-14T10:17:51.120Z,45.3
2018-03-14T10:18:41.150Z,44.9
2018-03-14T10:19:31.029Z,44.6
2018-03-14T10:20:21.553Z,44.6
2018-03-14T10:21:11.050Z,45.3
2018-03-14T10:22:01.387Z,46.4
2018-03-14T10:22:51.479Z,47.2
2018-03-14T10:23:41.235Z,47.6
2018-03-14T10:24:31.873Z,47.3
2018-03-14T10:25:21.528Z,46.3
2018-03-14T10:26:11.986Z,44.9
2018-03-14T10:27:01.481Z,43.5
2018-03-14T10:27:51.619Z,42.2
2018-03-14T10:28:41.903Z,41.1
2018-03-14T10:29:31.937Z,40.5
2018-03-14T10:30:21.797Z,40.1
2018-03-14T10:31:12.369Z,39.9
2018-03-14T10:32:02.130Z,40.2
2018-03-14T10:32:52.217Z,40.4
2018-03-14T10:33:41.972Z,40.6
2018-03-14T10:34:31.735Z,41
2018-03-14T10:35:22.184Z,41.6
2018-03-14T10:36:11.872Z,42.2
2018-03-14T10:37:02.497Z,42.4
2018-03-14T10:37:52.868Z,41.8
2018-03-14T10:38:42.925Z,40.9
2018-03-14T10:39:32.667Z,40
2018-03-14T10:40:22.041Z,39.3
2018-03-14T10:41:13.085Z,38.7
2018-03-14T10:42:02.660Z,38.6
2018-03-14T10:42:52.331Z,39.2
2018-03-14T10:43:42.407Z,40.3
2018-03-14T10:44:32.745Z,41.5
2018-03-14T10:45:23.377Z,42.7
2018-03-14T10:46:12.379Z,43.3
2018-03-14T10:47:02.739Z,43.4
2018-03-14T10:47:53.292Z,42.8
2018-03-14T10:48:43.341Z,41.8
2018-03-14T10:49:33.414Z,40.8
2018-03-14T10:50:23.178Z,40.6
2018-03-14T10:51:13.565Z,41
2018-03-14T10:52:03.376Z,41.6
2018-03-14T10:52:53.950Z,42.4
2018-03-14T10:53:43.115Z,42.8
2018-03-14T10:54:34.064Z,42.6
2018-03-14T10:55:24.126Z,42.1
2018-03-14T10:56:13.892Z,41.8
2018-03-14T10:57:03.453Z,42.1
2018-03-14T10:57:53.805Z,42.9
2018-03-14T10:58:44.375Z,43.6
2018-03-14T10:59:34.145Z,43.6
2018-03-14T11:00:24.190Z,43.4
2018-03-14T11:01:13.963Z,43.1
2018-03-14T11:02:04.316Z,42.9
2018-03-14T11:02:54.376Z,43.1
2018-03-14T11:03:44.049Z,44.1
2018-03-14T11:04:34.490Z,44.8
2018-03-14T11:05:24.282Z,44.9
2018-03-14T11:06:14.351Z,44.4
2018-03-14T11:07:04.670Z,43.8
2018-03-14T11:07:54.795Z,43.3
2018-03-14T11:08:44.508Z,42.6
2018-03-14T11:09:34.285Z,41.9
2018-03-14T11:10:24.920Z,41.3
2018-03-14T11:11:14.676Z,40.9
2018-03-14T11:12:05.052Z,40.7
2018-03-14T11:12:55.379Z,40.6
2018-03-14T11:13:45.150Z,40.4
2018-03-14T11:14:34.832Z,40.1
2018-03-14T11:15:24.988Z,39.6
2018-03-14T11:16:14.859Z,39.2
2018-03-14T11:17:04.830Z,38.8
2018-03-14T11:17:55.765Z,38.5
2018-03-14T11:18:45.535Z,38.5
2018-03-14T11:19:35.582Z,39.3
2018-03-14T11:20:25.216Z,40.4
2018-03-14T11:21:15.795Z,41.4
2018-03-14T11:22:05.480Z,41.8